Time;durP1;ratioP1;P1;durP2;ratioP2;P2;SDS_P1;SDS_P2;PMS_P1;PMS_P2;Temp;Humidity;BMP_temperature;BMP_pressure;BME280_temperature;BME280_humidity;BME280_pressure;Samples;Min_cycle;Max_cycle;Signal;HPM_P1;HPM_P2
2021/05/19 00:02:09;;;;;;;5.30;2.90;;;10.60;91.90;;;;;;5032000;28;20056;-90
2021/05/19 00:04:35;;;;;;;4.93;3.17;;;10.60;91.70;;;;;;5032681;28;20045;-90
2021/05/19 00:07:01;;;;;;;5.45;3.00;;;10.50;91.90;;;;;;5031598;28;20486;-90
2021/05/19 00:09:27;;;;;;;6.15;3.10;;;10.50;91.90;;;;;;5033045;28;20056;-89
2021/05/19 00:11:56;;;;;;;4.63;2.80;;;10.50;91.80;;;;;;5032247;28;20062;-90
2021/05/19 00:14:21;;;;;;;5.63;3.20;;;10.50;91.80;;;;;;5032371;28;20045;-89
2021/05/19 00:16:53;;;;;;;4.72;3.13;;;10.40;91.80;;;;;;5032884;28;20558;-89
2021/05/19 00:19:29;;;;;;;5.25;3.00;;;10.40;91.70;;;;;;5141596;22;20054;-89
2021/05/19 00:21:55;;;;;;;6.93;2.80;;;10.30;92.10;;;;;;5095692;28;20127;-89
2021/05/19 00:24:20;;;;;;;4.88;2.90;;;10.30;91.80;;;;;;5096699;28;20052;-89
2021/05/19 00:26:46;;;;;;;4.65;3.08;;;10.20;91.70;;;;;;5096331;28;20075;-91
2021/05/19 00:29:12;;;;;;;4.68;2.78;;;10.20;91.70;;;;;;5095701;28;20059;-89
2021/05/19 00:31:41;;;;;;;5.15;3.00;;;10.10;91.80;;;;;;5096526;28;20044;-88
2021/05/19 00:34:11;;;;;;;5.03;2.90;;;10.10;92.00;;;;;;5096107;28;20096;-88
2021/05/19 00:36:38;;;;;;;4.43;2.70;;;10.10;91.90;;;;;;5095686;28;20044;-88
2021/05/19 00:39:06;;;;;;;5.18;2.45;;;10.00;91.90;;;;;;5095855;28;20048;-88
2021/05/19 00:41:32;;;;;;;4.78;2.90;;;10.00;91.90;;;;;;5096133;28;20048;-88
2021/05/19 00:44:12;;;;;;;4.57;2.83;;;10.00;91.90;;;;;;5095238;28;20043;-88
2021/05/19 00:46:43;;;;;;;4.78;2.92;;;9.90;91.90;;;;;;5096172;28;20055;-90
2021/05/19 00:49:09;;;;;;;5.18;3.20;;;9.90;91.90;;;;;;5095093;28;20044;-89
2021/05/19 00:51:36;;;;;;;5.40;3.15;;;9.90;92.20;;;;;;5095906;28;20496;-88
2021/05/19 00:54:02;;;;;;;5.18;3.08;;;9.80;92.10;;;;;;5095160;28;20510;-89
2021/05/19 00:56:37;;;;;;;5.55;3.17;;;9.90;92.20;;;;;;5076877;28;20111;-89
2021/05/19 00:59:03;;;;;;;6.18;3.50;;;9.80;92.20;;;;;;5096073;28;20074;-89
2021/05/19 01:01:37;;;;;;;5.65;2.85;;;9.80;92.60;;;;;;5096074;28;20048;-90
2021/05/19 01:04:04;;;;;;;6.40;3.15;;;9.80;92.20;;;;;;5095034;28;20048;-89
2021/05/19 01:06:40;;;;;;;5.32;3.38;;;9.80;92.20;;;;;;5095758;28;20048;-89
2021/05/19 01:11:51;;;;;;;4.53;3.00;;;9.80;92.30;;;;;;5095157;28;20048;-89
2021/05/19 01:14:17;;;;;;;6.13;3.22;;;9.70;92.20;;;;;;5095309;28;20059;-88
2021/05/19 01:16:43;;;;;;;5.40;3.25;;;9.70;92.30;;;;;;5095662;28;20040;-89
2021/05/19 01:19:08;;;;;;;4.85;3.30;;;9.70;92.30;;;;;;5094324;28;20474;-89
2021/05/19 01:21:43;;;;;;;5.50;2.92;;;9.70;92.30;;;;;;5095031;28;20070;-88
2021/05/19 01:24:09;;;;;;;6.43;3.83;;;9.70;92.20;;;;;;5094650;28;20048;-89
2021/05/19 01:26:35;;;;;;;6.90;2.80;;;9.70;92.40;;;;;;5095046;28;20043;-89
2021/05/19 01:29:01;;;;;;;6.28;3.20;;;9.70;92.20;;;;;;5093995;28;20086;-89
2021/05/19 01:31:36;;;;;;;6.47;3.40;;;9.70;92.20;;;;;;5094450;28;20576;-89
2021/05/19 01:34:03;;;;;;;6.35;3.55;;;9.70;92.20;;;;;;5094893;28;20122;-89
2021/05/19 01:36:35;;;;;;;4.65;3.22;;;9.70;92.30;;;;;;5095248;28;20056;-89
2021/05/19 01:39:01;;;;;;;6.13;3.65;;;9.70;92.30;;;;;;5094432;28;20044;-91
2021/05/19 01:41:37;;;;;;;5.70;3.28;;;9.60;92.30;;;;;;5095233;28;20048;-89
2021/05/19 01:44:10;;;;;;;5.60;3.33;;;9.60;92.40;;;;;;5094903;28;20076;-90
2021/05/19 01:46:36;;;;;;;7.15;3.22;;;9.60;92.40;;;;;;5094564;28;20051;-89
2021/05/19 01:49:03;;;;;;;5.40;3.65;;;9.60;92.30;;;;;;5094701;28;20051;-90
2021/05/19 01:51:31;;;;;;;5.40;3.30;;;9.60;92.40;;;;;;5095010;28;20369;-90
2021/05/19 01:53:59;;;;;;;5.68;3.65;;;9.60;92.50;;;;;;5093718;28;20040;-90
2021/05/19 01:56:24;;;;;;;5.57;3.60;;;9.60;92.60;;;;;;5094564;28;20409;-90
2021/05/19 01:58:59;;;;;;;6.20;3.55;;;9.60;92.60;;;;;;5092509;28;20044;-90
2021/05/19 02:01:25;;;;;;;6.60;3.55;;;9.60;92.50;;;;;;5094190;28;20055;-90
2021/05/19 02:06:57;;;;;;;5.93;3.38;;;9.60;92.20;;;;;;5094278;28;20108;-90
2021/05/19 02:09:25;;;;;;;5.70;3.80;;;9.50;91.90;;;;;;5094509;28;20048;-90
2021/05/19 02:11:52;;;;;;;6.18;3.42;;;9.50;92.10;;;;;;5094342;28;20054;-89
2021/05/19 02:14:34;;;;;;;5.88;4.00;;;9.50;92.10;;;;;;5094002;28;20072;-89
2021/05/19 02:17:00;;;;;;;6.03;3.60;;;9.50;92.10;;;;;;5094341;28;20048;-90
2021/05/19 02:19:27;;;;;;;5.40;3.53;;;9.50;92.00;;;;;;5094257;28;20056;-89
2021/05/19 02:21:53;;;;;;;5.90;3.90;;;9.50;91.90;;;;;;5093783;28;20105;-90
2021/05/19 02:24:18;;;;;;;7.47;3.70;;;9.50;92.00;;;;;;5094064;28;20078;-90
2021/05/19 02:26:46;;;;;;;6.90;4.43;;;9.50;91.90;;;;;;5094271;28;20052;-89
2021/05/19 02:29:13;;;;;;;6.53;4.30;;;9.50;92.00;;;;;;5093582;28;20060;-89
2021/05/19 02:31:39;;;;;;;6.72;3.97;;;9.50;92.20;;;;;;5094256;28;20068;-89
2021/05/19 02:34:06;;;;;;;6.78;4.93;;;9.40;92.20;;;;;;5093592;28;20423;-88
2021/05/19 02:36:32;;;;;;;8.30;4.68;;;9.40;92.30;;;;;;5093576;28;20048;-90
2021/05/19 02:38:57;;;;;;;6.55;3.97;;;9.40;92.40;;;;;;5093177;28;20484;-88
2021/05/19 02:41:24;;;;;;;7.30;4.57;;;9.50;92.40;;;;;;5092511;28;20093;-88
2021/05/19 02:43:49;;;;;;;7.25;4.63;;;9.40;92.50;;;;;;5093886;28;20127;-88
2021/05/19 02:46:15;;;;;;;7.35;4.90;;;9.50;92.60;;;;;;5093102;28;20122;-88
2021/05/19 02:48:41;;;;;;;8.00;5.20;;;9.40;92.60;;;;;;5092784;28;20146;-89
2021/05/19 02:51:13;;;;;;;7.25;5.22;;;9.40;92.60;;;;;;5093378;28;20055;-89
2021/05/19 02:53:39;;;;;;;9.27;4.97;;;9.40;92.80;;;;;;5093341;28;20055;-89
2021/05/19 02:56:05;;;;;;;8.98;4.93;;;9.40;92.60;;;;;;5092566;28;20044;-89
2021/05/19 02:58:33;;;;;;;7.53;5.15;;;9.40;92.60;;;;;;5093956;28;20056;-90
2021/05/19 03:00:59;;;;;;;7.97;5.53;;;9.40;92.50;;;;;;5093503;28;20047;-90
2021/05/19 03:03:25;;;;;;;9.88;4.47;;;9.40;92.60;;;;;;5092909;28;20557;-89
2021/05/19 03:05:51;;;;;;;8.32;5.50;;;9.40;92.40;;;;;;5093532;28;20075;-89
2021/05/19 03:08:19;;;;;;;7.70;5.05;;;9.40;92.40;;;;;;5093603;28;20052;-89
2021/05/19 03:10:47;;;;;;;7.43;5.03;;;9.40;92.30;;;;;;5093268;28;20062;-89
2021/05/19 03:13:12;;;;;;;7.10;5.20;;;9.40;92.30;;;;;;5094003;28;20044;-89
2021/05/19 03:15:38;;;;;;;6.78;4.32;;;9.40;92.40;;;;;;5094224;28;20052;-89
2021/05/19 03:18:04;;;;;;;9.07;4.75;;;9.30;92.10;;;;;;5092413;28;20492;-89
2021/05/19 03:20:30;;;;;;;8.32;5.05;;;9.30;91.90;;;;;;5073857;28;20041;-89
2021/05/19 03:22:57;;;;;;;7.63;5.03;;;9.30;92.00;;;;;;5073016;28;20481;-89
2021/05/19 03:25:23;;;;;;;8.65;5.70;;;9.40;92.10;;;;;;5089756;28;20105;-89
2021/05/19 03:27:49;;;;;;;7.45;5.00;;;9.30;92.30;;;;;;5093931;28;20047;-89
2021/05/19 03:30:16;;;;;;;7.20;4.72;;;9.30;92.30;;;;;;5093058;28;20040;-89
2021/05/19 03:32:42;;;;;;;7.57;5.32;;;9.30;92.20;;;;;;5092230;28;20056;-90
2021/05/19 03:35:09;;;;;;;8.18;5.18;;;9.40;92.50;;;;;;5092921;28;20408;-89
2021/05/19 03:37:39;;;;;;;7.43;5.60;;;9.40;92.40;;;;;;5092541;28;20472;-90
2021/05/19 03:40:09;;;;;;;8.40;5.53;;;9.40;92.60;;;;;;5092877;28;20051;-89
2021/05/19 03:42:35;;;;;;;6.72;5.28;;;9.30;92.50;;;;;;5092703;28;20071;-88
2021/05/19 03:45:03;;;;;;;7.47;5.32;;;9.40;92.50;;;;;;5091258;28;20412;-89
2021/05/19 03:47:29;;;;;;;8.18;5.72;;;9.30;92.30;;;;;;5093183;28;20044;-89
2021/05/19 03:50:00;;;;;;;7.88;5.88;;;9.30;92.30;;;;;;5092653;28;20073;-89
2021/05/19 03:52:26;;;;;;;6.72;5.32;;;9.30;92.50;;;;;;5091927;28;20048;-89
2021/05/19 03:54:52;;;;;;;7.50;5.03;;;9.40;92.50;;;;;;5092135;28;20101;-89
2021/05/19 03:57:17;;;;;;;7.68;5.53;;;9.40;92.40;;;;;;5092933;28;20071;-90
2021/05/19 03:59:43;;;;;;;8.80;5.72;;;9.40;92.50;;;;;;5074350;28;20051;-89
2021/05/19 04:02:09;;;;;;;8.85;6.15;;;9.40;92.60;;;;;;5074696;28;20044;-89
2021/05/19 04:04:34;;;;;;;7.00;5.72;;;9.40;92.70;;;;;;5092454;28;20082;-89
2021/05/19 04:07:00;;;;;;;7.75;5.50;;;9.40;92.80;;;;;;5091555;28;20454;-88
2021/05/19 04:09:26;;;;;;;7.57;5.63;;;9.40;92.80;;;;;;5092519;28;20051;-89
2021/05/19 04:11:53;;;;;;;8.48;5.70;;;9.40;92.70;;;;;;5092010;28;20052;-89
2021/05/19 04:14:22;;;;;;;8.63;6.13;;;9.30;92.80;;;;;;5091787;28;20058;-89
2021/05/19 04:16:48;;;;;;;8.50;5.60;;;9.30;92.80;;;;;;5092751;28;20499;-89
2021/05/19 04:19:14;;;;;;;8.50;5.55;;;9.30;92.70;;;;;;5092081;28;20056;-89
2021/05/19 04:21:52;;;;;;;7.28;5.30;;;9.30;92.70;;;;;;5091891;28;20495;-89
2021/05/19 04:24:18;;;;;;;7.63;5.80;;;9.30;92.60;;;;;;5092233;28;20054;-91
2021/05/19 04:26:43;;;;;;;8.65;5.85;;;9.30;92.50;;;;;;5092361;28;20047;-89
2021/05/19 04:29:09;;;;;;;9.82;5.57;;;9.30;92.50;;;;;;5091701;28;20078;-90
2021/05/19 04:31:34;;;;;;;8.75;5.90;;;9.30;92.50;;;;;;5092299;28;20048;-88
2021/05/19 04:34:00;;;;;;;6.80;4.90;;;9.30;92.60;;;;;;5091837;28;20085;-89
2021/05/19 04:36:26;;;;;;;9.63;5.82;;;9.30;92.30;;;;;;5092746;28;20099;-88
2021/05/19 04:38:52;;;;;;;9.45;6.10;;;9.30;92.20;;;;;;5092240;28;20126;-89
2021/05/19 04:41:20;;;;;;;6.78;4.78;;;9.30;92.10;;;;;;5091513;28;20140;-89
2021/05/19 04:43:46;;;;;;;9.45;6.20;;;9.30;92.00;;;;;;5092615;28;20105;-89
2021/05/19 04:46:12;;;;;;;11.73;8.38;;;9.30;92.10;;;;;;5091921;28;20060;-89
2021/05/19 04:48:38;;;;;;;10.73;6.50;;;9.30;92.10;;;;;;5091721;28;20040;-89
2021/05/19 04:51:04;;;;;;;10.07;6.40;;;9.30;92.30;;;;;;5091846;28;20052;-89
2021/05/19 04:53:30;;;;;;;8.88;6.60;;;9.30;92.20;;;;;;5092120;28;20055;-89
2021/05/19 04:55:58;;;;;;;7.85;5.88;;;9.30;92.40;;;;;;5091304;28;20047;-90
2021/05/19 04:58:27;;;;;;;9.02;6.20;;;9.30;92.20;;;;;;5092451;28;20043;-89
2021/05/19 05:00:54;;;;;;;10.13;6.97;;;9.40;92.40;;;;;;5091403;28;20135;-89
2021/05/19 05:03:20;;;;;;;10.38;6.50;;;9.40;92.20;;;;;;5092879;28;20044;-90
2021/05/19 05:05:51;;;;;;;11.07;7.57;;;9.40;92.20;;;;;;5095415;28;20044;-89
2021/05/19 05:08:17;;;;;;;12.70;8.63;;;9.40;92.20;;;;;;5094839;28;20131;-89
2021/05/19 05:10:42;;;;;;;11.02;6.85;;;9.40;92.30;;;;;;5094406;28;20416;-89
2021/05/19 05:13:09;;;;;;;10.27;6.85;;;9.40;92.40;;;;;;5095517;28;20052;-89
2021/05/19 05:15:34;;;;;;;10.90;7.43;;;9.50;92.40;;;;;;5095443;28;20048;-90
2021/05/19 05:18:00;;;;;;;11.43;7.18;;;9.50;92.40;;;;;;5094748;28;20438;-89
2021/05/19 05:20:26;;;;;;;12.82;9.20;;;9.50;92.40;;;;;;5095348;28;20098;-88
2021/05/19 05:22:52;;;;;;;12.07;9.00;;;9.50;92.40;;;;;;5095133;28;20048;-89
2021/05/19 05:25:18;;;;;;;13.45;9.40;;;9.60;92.50;;;;;;5094401;28;20044;-89
2021/05/19 05:27:47;;;;;;;12.38;8.48;;;9.60;92.50;;;;;;5087750;28;20404;-89
2021/05/19 05:30:14;;;;;;;13.50;9.13;;;9.70;92.50;;;;;;5085133;28;20054;-88
2021/05/19 05:32:40;;;;;;;11.70;8.05;;;9.70;92.40;;;;;;5078084;28;20056;-91
2021/05/19 05:35:07;;;;;;;14.15;9.55;;;9.70;92.30;;;;;;5095650;28;20055;-93
2021/05/19 05:37:33;;;;;;;12.63;8.50;;;9.70;92.30;;;;;;5095242;28;20403;-92
2021/05/19 05:39:59;;;;;;;11.10;7.25;;;9.70;92.20;;;;;;5095425;28;20078;-92
2021/05/19 05:42:27;;;;;;;12.48;8.38;;;9.70;92.20;;;;;;5094937;28;20036;-91
2021/05/19 05:44:53;;;;;;;12.90;7.97;;;9.70;92.20;;;;;;5093335;28;20040;-92
2021/05/19 05:47:19;;;;;;;16.02;11.10;;;9.80;92.10;;;;;;5095409;28;20078;-87
2021/05/19 05:49:45;;;;;;;13.02;9.88;;;9.70;92.20;;;;;;5094775;28;20074;-86
2021/05/19 05:52:17;;;;;;;14.15;10.52;;;9.70;92.30;;;;;;5094853;28;20067;-85
2021/05/19 05:54:43;;;;;;;15.02;10.13;;;9.80;92.30;;;;;;5095525;28;20075;-87
2021/05/19 05:57:08;;;;;;;14.18;11.13;;;9.70;92.30;;;;;;5093890;28;20048;-90
2021/05/19 05:59:34;;;;;;;15.80;10.95;;;9.80;92.50;;;;;;5095403;28;20408;-96
2021/05/19 06:02:09;;;;;;;17.08;10.02;;;9.80;92.60;;;;;;5095001;28;20048;-91
2021/05/19 06:04:35;;;;;;;11.98;8.32;;;9.80;92.60;;;;;;5093730;28;20051;-89
2021/05/19 06:07:00;;;;;;;13.48;9.88;;;9.80;92.50;;;;;;5093150;28;20048;-89
2021/05/19 06:09:32;;;;;;;17.58;11.20;;;9.80;92.40;;;;;;5093980;28;20067;-90
2021/05/19 06:11:58;;;;;;;14.73;10.23;;;9.90;92.60;;;;;;5087259;28;20044;-89
2021/05/19 06:14:24;;;;;;;16.42;11.98;;;9.90;92.70;;;;;;5085381;28;20069;-90
2021/05/19 06:17:03;;;;;;;11.57;8.82;;;9.90;92.70;;;;;;5094052;28;20055;-90
2021/05/19 06:19:31;;;;;;;11.55;8.25;;;9.90;92.70;;;;;;5077845;28;20074;-90
2021/05/19 06:22:04;;;;;;;13.52;8.82;;;9.90;92.60;;;;;;5093874;28;20461;-90
2021/05/19 06:24:30;;;;;;;20.08;11.75;;;9.90;92.50;;;;;;5094178;28;20056;-90
2021/05/19 06:26:56;;;;;;;16.13;10.50;;;9.90;92.50;;;;;;5093101;28;20101;-88
2021/05/19 06:29:37;;;;;;;20.90;12.88;;;10.00;92.70;;;;;;5088085;28;20058;-89
2021/05/19 06:32:03;;;;;;;13.05;9.15;;;10.00;92.70;;;;;;5093653;28;20090;-90
2021/05/19 06:34:28;;;;;;;13.65;9.88;;;10.00;92.70;;;;;;5092688;28;20455;-89
2021/05/19 06:36:54;;;;;;;21.88;12.90;;;10.00;92.60;;;;;;5093284;28;20471;-89
2021/05/19 06:39:22;;;;;;;19.95;13.65;;;10.10;92.80;;;;;;5093614;28;20040;-90
2021/05/19 06:41:48;;;;;;;20.95;14.20;;;10.10;92.90;;;;;;5093065;28;20105;-89
2021/05/19 06:44:15;;;;;;;16.45;11.05;;;10.10;93.00;;;;;;5093109;28;20048;-88
2021/05/19 06:46:41;;;;;;;23.83;15.60;;;10.20;92.80;;;;;;5093672;28;20469;-88
2021/05/19 06:49:07;;;;;;;19.67;12.98;;;10.20;92.90;;;;;;5091994;28;20047;-89
2021/05/19 06:51:37;;;;;;;21.13;14.93;;;10.20;93.00;;;;;;5093729;28;20419;-89
2021/05/19 06:54:03;;;;;;;20.80;14.30;;;10.30;93.20;;;;;;5092471;28;20056;-88
2021/05/19 06:56:29;;;;;;;23.65;16.33;;;10.30;93.10;;;;;;5092433;28;20076;-89
2021/05/19 06:58:55;;;;;;;27.52;16.15;;;10.30;93.30;;;;;;5093460;28;20455;-89
2021/05/19 07:01:21;;;;;;;23.30;15.77;;;10.40;93.40;;;;;;5093734;28;20047;-92
2021/05/19 07:03:50;;;;;;;28.13;18.10;;;10.40;93.40;;;;;;5093166;28;20044;-89
2021/05/19 07:06:17;;;;;;;22.23;14.70;;;10.50;93.50;;;;;;5092929;28;20056;-89
2021/05/19 07:08:43;;;;;;;19.95;13.88;;;10.50;93.50;;;;;;5092583;28;20048;-88
2021/05/19 07:11:21;;;;;;;21.50;14.25;;;10.60;93.50;;;;;;5092530;28;20403;-90
2021/05/19 07:14:16;;;;;;;28.27;18.65;;;10.60;93.30;;;;;;5093303;28;20047;-90
2021/05/19 07:16:59;;;;;;;25.88;18.60;;;10.70;93.40;;;;;;5070577;28;20165;-91
2021/05/19 07:19:28;;;;;;;28.23;18.67;;;10.70;93.60;;;;;;5072764;28;20057;-92
2021/05/19 07:21:54;;;;;;;24.92;16.73;;;10.80;93.60;;;;;;5080762;28;20151;-90
2021/05/19 07:24:29;;;;;;;24.20;16.45;;;10.80;93.60;;;;;;5086797;28;20135;-90
2021/05/19 07:26:54;;;;;;;21.60;15.05;;;10.90;93.50;;;;;;5088095;28;20059;-89
2021/05/19 07:29:29;;;;;;;26.92;17.75;;;10.90;93.50;;;;;;5092861;28;20044;-89
2021/05/19 07:31:56;;;;;;;27.50;18.30;;;11.00;93.50;;;;;;5074897;28;20051;-89
2021/05/19 07:34:23;;;;;;;27.17;16.65;;;11.00;93.60;;;;;;5083960;28;20150;-89
2021/05/19 07:36:48;;;;;;;28.90;18.23;;;11.10;93.50;;;;;;5090776;28;20044;-87
2021/05/19 07:39:23;;;;;;;29.38;17.88;;;11.10;93.60;;;;;;5085977;28;20048;-88
2021/05/19 07:41:49;;;;;;;25.40;18.38;;;11.20;93.70;;;;;;5074592;28;20137;-89
2021/05/19 07:44:15;;;;;;;25.42;16.60;;;11.20;93.70;;;;;;5083313;28;20040;-88
2021/05/19 07:46:53;;;;;;;24.88;16.02;;;11.40;93.70;;;;;;5092153;28;20051;-88
2021/05/19 07:49:19;;;;;;;21.80;14.13;;;11.40;93.60;;;;;;5092734;28;20110;-90
2021/05/19 07:51:45;;;;;;;18.55;14.05;;;11.60;93.50;;;;;;5092030;28;20087;-90
2021/05/19 07:54:30;;;;;;;20.38;14.00;;;11.60;93.40;;;;;;5084408;28;20517;-87
2021/05/19 07:59:37;;;;;;;21.83;15.05;;;11.90;93.20;;;;;;5089438;28;20048;-88
2021/05/19 08:02:04;;;;;;;18.77;11.90;;;12.00;93.30;;;;;;5091225;28;20415;-87
2021/05/19 08:04:37;;;;;;;17.70;12.00;;;12.10;93.30;;;;;;5092030;28;20499;-88
2021/05/19 08:07:04;;;;;;;22.67;13.40;;;12.20;92.90;;;;;;5088424;28;20047;-87
2021/05/19 08:09:30;;;;;;;16.27;10.68;;;12.30;92.70;;;;;;5092467;28;20048;-88
2021/05/19 08:11:57;;;;;;;12.40;9.77;;;12.50;92.50;;;;;;5091135;28;20472;-89
2021/05/19 08:14:26;;;;;;;14.85;10.13;;;12.60;92.20;;;;;;5092036;28;20082;-89
2021/05/19 08:16:53;;;;;;;16.58;10.93;;;12.70;91.60;;;;;;5091550;28;20142;-88
2021/05/19 08:19:19;;;;;;;15.43;10.80;;;12.80;91.20;;;;;;5091216;28;20056;-89
2021/05/19 08:21:44;;;;;;;16.75;10.55;;;12.80;91.10;;;;;;5092470;28;20048;-88
2021/05/19 08:24:10;;;;;;;15.27;10.57;;;12.90;91.00;;;;;;5091085;28;20493;-89
2021/05/19 08:26:36;;;;;;;14.85;9.65;;;13.00;90.90;;;;;;5090694;28;20052;-89
2021/05/19 08:29:04;;;;;;;15.30;10.00;;;13.10;90.70;;;;;;5091194;28;20048;-90
2021/05/19 08:31:29;;;;;;;13.68;9.43;;;13.10;90.50;;;;;;5089349;28;20412;-89
2021/05/19 08:33:58;;;;;;;15.60;10.45;;;13.20;90.40;;;;;;5089398;28;20036;-89
2021/05/19 08:36:25;;;;;;;12.30;9.48;;;13.20;90.30;;;;;;5089986;28;20066;-89
2021/05/19 08:38:52;;;;;;;15.32;10.77;;;13.30;90.30;;;;;;5090326;28;20036;-88
2021/05/19 08:41:18;;;;;;;17.85;9.95;;;13.40;90.30;;;;;;5091085;28;20048;-88
2021/05/19 08:43:44;;;;;;;14.73;9.27;;;13.40;90.20;;;;;;5093410;28;20101;-87
2021/05/19 08:46:11;;;;;;;14.20;9.45;;;13.50;90.10;;;;;;5095508;28;20446;-88
2021/05/19 08:48:38;;;;;;;14.02;9.52;;;13.50;89.60;;;;;;5095358;28;20052;-88
2021/05/19 08:51:05;;;;;;;14.90;10.38;;;13.60;89.70;;;;;;5095299;28;20048;-89
2021/05/19 08:53:32;;;;;;;14.70;10.45;;;13.60;89.50;;;;;;5090160;28;21616;-89
2021/05/19 08:55:59;;;;;;;14.40;10.20;;;13.60;89.20;;;;;;5091636;28;20070;-89
2021/05/19 08:58:25;;;;;;;14.05;10.07;;;13.70;89.10;;;;;;5095092;28;20377;-89
2021/05/19 09:00:51;;;;;;;13.40;9.50;;;13.70;89.00;;;;;;5094377;28;20063;-89
2021/05/19 09:03:18;;;;;;;11.88;9.63;;;13.70;88.70;;;;;;5093964;28;20523;-89
2021/05/19 09:05:48;;;;;;;13.30;9.38;;;13.70;88.30;;;;;;5094850;28;20059;-88
2021/05/19 09:08:16;;;;;;;13.98;9.20;;;13.70;88.00;;;;;;5073722;28;20508;-88
2021/05/19 09:10:43;;;;;;;13.27;9.88;;;13.70;88.70;;;;;;5080678;28;20078;-88
2021/05/19 09:13:31;;;;;;;13.38;8.73;;;13.70;88.00;;;;;;5091249;28;20048;-88
2021/05/19 09:15:56;;;;;;;12.88;8.88;;;13.70;87.60;;;;;;5082573;28;20113;-88
2021/05/19 09:18:23;;;;;;;15.60;9.40;;;13.70;87.70;;;;;;5094759;28;20117;-88
2021/05/19 09:20:51;;;;;;;14.82;8.75;;;13.80;87.80;;;;;;5094997;28;20051;-89
2021/05/19 09:23:20;;;;;;;13.35;9.32;;;13.80;87.70;;;;;;5084973;28;20052;-86
2021/05/19 09:26:03;;;;;;;13.95;9.40;;;13.90;87.40;;;;;;5095214;28;20048;-87
2021/05/19 09:28:28;;;;;;;12.13;9.02;;;13.90;86.80;;;;;;5094746;28;20040;-88
2021/05/19 09:30:54;;;;;;;9.82;8.07;;;14.00;86.60;;;;;;5093810;28;20063;-89
2021/05/19 09:33:27;;;;;;;13.20;9.07;;;14.00;86.80;;;;;;5095216;28;20543;-88
2021/05/19 09:36:15;;;;;;;12.18;9.07;;;14.00;86.00;;;;;;5095198;28;20134;-89
2021/05/19 09:38:41;;;;;;;15.48;9.90;;;14.10;85.70;;;;;;5095783;28;20398;-90
2021/05/19 09:41:27;;;;;;;9.05;5.95;;;14.10;85.70;;;;;;5095552;28;20099;-89
2021/05/19 09:43:57;;;;;;;6.47;3.40;;;14.00;85.10;;;;;;5094009;28;20043;-92
2021/05/19 09:46:34;;;;;;;6.35;1.92;;;14.00;84.50;;;;;;5095562;28;20142;-89
2021/05/19 09:49:22;;;;;;;6.95;4.30;;;13.90;83.00;;;;;;5080257;28;20044;-87
2021/05/19 09:51:49;;;;;;;7.07;3.92;;;13.80;84.20;;;;;;5093670;28;20048;-90
2021/05/19 09:54:39;;;;;;;4.97;1.67;;;13.70;85.40;;;;;;5094329;28;20051;-87
2021/05/19 09:57:07;;;;;;;6.72;3.47;;;13.60;84.50;;;;;;5094146;28;20052;-86
2021/05/19 09:59:34;;;;;;;9.70;6.45;;;13.60;85.60;;;;;;5093677;28;20044;-88
2021/05/19 10:02:00;;;;;;;8.23;5.50;;;13.50;87.30;;;;;;5093649;28;20048;-85
2021/05/19 10:04:36;;;;;;;10.73;6.93;;;13.50;88.80;;;;;;5093756;28;20377;-89
2021/05/19 10:07:03;;;;;;;9.60;6.75;;;13.50;89.50;;;;;;5093710;28;20148;-85
2021/05/19 10:09:28;;;;;;;7.43;5.95;;;13.60;90.20;;;;;;5094161;28;20044;-88
2021/05/19 10:11:56;;;;;;;9.02;6.22;;;13.60;90.50;;;;;;5093376;28;20090;-89
2021/05/19 10:14:23;;;;;;;7.13;5.60;;;13.60;90.60;;;;;;5094885;28;20048;-89
2021/05/19 10:16:56;;;;;;;8.07;5.13;;;13.60;90.80;;;;;;5093292;28;20064;-87
2021/05/19 10:19:33;;;;;;;9.63;5.38;;;13.60;90.80;;;;;;5095658;28;20052;-91
2021/05/19 10:21:59;;;;;;;8.00;5.03;;;13.70;90.90;;;;;;5075838;28;20400;-88
2021/05/19 10:24:44;;;;;;;7.53;4.95;;;13.70;91.00;;;;;;5093472;28;20044;-88
2021/05/19 10:27:10;;;;;;;6.05;3.70;;;13.70;90.90;;;;;;5092774;28;20055;-86
2021/05/19 10:29:53;;;;;;;5.15;2.70;;;13.70;90.80;;;;;;5094139;28;20036;-89
2021/05/19 10:32:21;;;;;;;4.67;2.73;;;13.70;90.40;;;;;;5093609;28;20074;-89
2021/05/19 10:34:54;;;;;;;5.30;2.88;;;13.70;90.50;;;;;;5093408;28;20044;-89
2021/05/19 10:37:26;;;;;;;3.83;1.90;;;13.70;90.60;;;;;;5093555;28;20044;-88
2021/05/19 10:40:07;;;;;;;3.22;1.30;;;13.80;90.40;;;;;;5092677;28;20052;-90
2021/05/19 10:42:34;;;;;;;3.85;1.90;;;13.80;89.90;;;;;;5093365;28;20063;-89
2021/05/19 10:45:12;;;;;;;2.47;1.30;;;13.80;90.00;;;;;;5093793;28;20044;-91
2021/05/19 10:47:38;;;;;;;3.55;1.80;;;13.90;89.60;;;;;;5093495;28;20071;-88
2021/05/19 10:50:18;;;;;;;2.20;1.25;;;13.90;89.70;;;;;;5088694;28;20472;-88
2021/05/19 10:58:29;;;;;;;4.55;2.50;;;14.10;90.10;;;;;;5093374;28;20127;-89
2021/05/19 11:00:55;;;;;;;4.35;2.63;;;14.10;90.20;;;;;;5091123;28;20048;-89
2021/05/19 11:03:22;;;;;;;2.38;1.27;;;14.10;90.20;;;;;;5090377;28;20059;-89
2021/05/19 11:05:54;;;;;;;2.83;1.38;;;14.20;89.50;;;;;;5092337;28;20056;-89
2021/05/19 11:08:30;;;;;;;3.63;1.50;;;14.20;87.00;;;;;;5081842;28;20044;-89
2021/05/19 11:11:15;;;;;;;4.68;2.40;;;14.20;85.30;;;;;;5091045;28;20085;-89
2021/05/19 11:14:11;;;;;;;9.35;2.30;;;14.10;87.50;;;;;;5083786;28;20085;-86
2021/05/19 11:16:52;;;;;;;3.95;2.20;;;14.20;88.90;;;;;;5089138;28;20062;-87
2021/05/19 11:19:29;;;;;;;4.30;2.50;;;14.20;89.80;;;;;;5092050;28;20411;-89
2021/05/19 11:22:13;;;;;;;4.10;2.20;;;14.30;90.10;;;;;;5091604;28;20047;-87
2021/05/19 11:24:48;;;;;;;4.13;2.35;;;14.30;90.20;;;;;;5091788;28;20055;-86
2021/05/19 11:27:19;;;;;;;5.53;2.35;;;14.30;90.30;;;;;;5089872;28;20048;-88
2021/05/19 11:29:46;;;;;;;4.15;1.98;;;14.40;90.10;;;;;;5089917;28;20132;-89
2021/05/19 11:32:17;;;;;;;6.68;2.60;;;14.30;89.90;;;;;;5085556;28;20360;-86
2021/05/19 11:34:43;;;;;;;4.22;2.17;;;14.30;88.70;;;;;;5086452;28;20529;-87
2021/05/19 11:37:10;;;;;;;5.18;2.17;;;14.20;90.00;;;;;;5074806;28;20048;-91
2021/05/19 11:39:44;;;;;;;5.57;2.40;;;14.20;90.40;;;;;;5092828;28;20484;-89
2021/05/19 11:42:29;;;;;;;5.97;2.53;;;14.30;90.60;;;;;;5087859;28;20070;-89
2021/05/19 11:45:02;;;;;;;3.97;2.20;;;14.20;90.10;;;;;;5084543;28;20098;-90
2021/05/19 11:47:28;;;;;;;4.57;2.30;;;14.30;90.50;;;;;;5092892;28;20082;-90
2021/05/19 11:50:15;;;;;;;3.88;2.28;;;14.20;90.60;;;;;;5089823;28;20075;-90
2021/05/19 11:52:49;;;;;;;6.82;2.28;;;14.30;90.70;;;;;;5092530;28;20063;-90
2021/05/19 11:55:36;;;;;;;6.45;2.58;;;14.30;90.50;;;;;;5091678;28;20044;-90
2021/05/19 11:58:20;;;;;;;4.13;2.40;;;14.20;90.50;;;;;;5090379;28;20145;-90
2021/05/19 12:01:07;;;;;;;5.53;2.20;;;14.20;90.70;;;;;;5087884;28;20060;-89
2021/05/19 12:03:35;;;;;;;5.30;2.38;;;14.20;90.50;;;;;;5079823;28;20044;-90
2021/05/19 12:06:06;;;;;;;8.38;2.28;;;14.20;90.50;;;;;;5091479;28;20484;-90
2021/05/19 12:08:34;;;;;;;4.80;2.25;;;14.10;89.90;;;;;;5091944;28;20036;-90
2021/05/19 12:11:18;;;;;;;4.75;2.42;;;14.10;90.10;;;;;;5080955;28;20095;-90
2021/05/19 12:14:05;;;;;;;3.55;1.70;;;14.00;90.40;;;;;;5096080;28;20047;-91
2021/05/19 12:16:32;;;;;;;3.63;1.83;;;14.00;90.30;;;;;;5078369;28;20041;-92
2021/05/19 12:18:59;;;;;;;5.38;2.35;;;14.00;90.50;;;;;;5097659;28;20055;-89
2021/05/19 12:21:26;;;;;;;5.03;2.10;;;14.00;90.60;;;;;;5096023;28;20044;-88
2021/05/19 12:23:53;;;;;;;4.95;2.40;;;13.90;90.70;;;;;;5104771;28;20450;-87
2021/05/19 12:26:19;;;;;;;2.70;1.30;;;14.00;90.90;;;;;;5095104;28;20052;-89
2021/05/19 12:28:46;;;;;;;4.43;2.00;;;14.00;90.60;;;;;;5096627;28;20052;-91
2021/05/19 12:31:24;;;;;;;3.90;2.20;;;14.00;90.80;;;;;;5095945;28;20048;-89
2021/05/19 12:33:50;;;;;;;3.75;1.75;;;14.00;90.90;;;;;;5095375;28;20044;-89
2021/05/19 12:36:30;;;;;;;4.13;1.10;;;14.00;91.00;;;;;;5095507;28;20482;-90
2021/05/19 12:39:02;;;;;;;3.28;1.90;;;14.00;90.30;;;;;;5085696;28;20052;-88
2021/05/19 12:41:41;;;;;;;3.15;1.77;;;14.00;90.70;;;;;;5086266;28;20040;-88
2021/05/19 12:44:08;;;;;;;3.83;1.90;;;14.00;90.90;;;;;;5098107;28;20048;-88
2021/05/19 12:46:34;;;;;;;5.07;1.27;;;14.00;91.00;;;;;;5094942;28;20105;-88
2021/05/19 12:49:06;;;;;;;3.10;1.67;;;14.00;90.50;;;;;;5088552;28;20045;-88
2021/05/19 12:51:47;;;;;;;4.38;1.52;;;14.00;90.70;;;;;;5096222;28;20145;-89
2021/05/19 12:54:19;;;;;;;3.03;1.38;;;14.00;90.90;;;;;;5090606;28;20039;-88
2021/05/19 12:56:44;;;;;;;3.53;1.70;;;14.00;90.60;;;;;;5104698;28;20062;-88
2021/05/19 12:59:11;;;;;;;3.33;1.60;;;14.10;90.90;;;;;;5105011;28;20476;-88
2021/05/19 13:01:43;;;;;;;4.40;1.80;;;14.10;91.00;;;;;;5090658;28;20044;-88
2021/05/19 13:04:09;;;;;;;3.35;1.40;;;14.10;91.10;;;;;;5091920;28;20051;-88
2021/05/19 13:06:35;;;;;;;3.85;1.48;;;14.10;91.10;;;;;;5092269;28;20483;-88
2021/05/19 13:09:05;;;;;;;2.53;1.17;;;14.10;91.10;;;;;;5094843;28;20127;-87
2021/05/19 13:11:32;;;;;;;3.35;1.50;;;14.10;91.40;;;;;;5087508;28;20040;-89